sensor_id;sensor_type;location;lat;lon;timestamp;temperature;humidity
17148;DHT22;8689;47.364;8.796;2023-07-09T00:02:21;19.10;87.50
17148;DHT22;8689;47.364;8.796;2023-07-09T00:05:01;19.10;87.30
17148;DHT22;8689;47.364;8.796;2023-07-09T00:07:32;19.10;87.40
17148;DHT22;8689;47.364;8.796;2023-07-09T00:10:05;19.10;87.00
17148;DHT22;8689;47.364;8.796;2023-07-09T00:12:40;19.10;86.90
17148;DHT22;8689;47.364;8.796;2023-07-09T00:15:12;19.10;87.00
17148;DHT22;8689;47.364;8.796;2023-07-09T00:17:41;19.10;87.60
17148;DHT22;8689;47.364;8.796;2023-07-09T00:23:09;19.10;87.60
17148;DHT22;8689;47.364;8.796;2023-07-09T00:25:39;19.10;87.50
17148;DHT22;8689;47.364;8.796;2023-07-09T00:28:20;19.10;87.40
17148;DHT22;8689;47.364;8.796;2023-07-09T00:31:02;19.20;87.40
17148;DHT22;8689;47.364;8.796;2023-07-09T00:33:31;19.20;87.80
17148;DHT22;8689;47.364;8.796;2023-07-09T00:36:11;19.20;87.80
17148;DHT22;8689;47.364;8.796;2023-07-09T00:38:43;19.10;87.90
17148;DHT22;8689;47.364;8.796;2023-07-09T00:41:15;19.10;88.20
17148;DHT22;8689;47.364;8.796;2023-07-09T00:43:47;19.10;88.40
17148;DHT22;8689;47.364;8.796;2023-07-09T00:49:02;19.10;89.10
17148;DHT22;8689;47.364;8.796;2023-07-09T00:51:33;19.00;88.90
17148;DHT22;8689;47.364;8.796;2023-07-09T00:54:07;19.00;89.20
17148;DHT22;8689;47.364;8.796;2023-07-09T00:56:43;19.00;88.80
17148;DHT22;8689;47.364;8.796;2023-07-09T00:59:16;19.00;89.20
17148;DHT22;8689;47.364;8.796;2023-07-09T01:01:51;18.90;90.10
17148;DHT22;8689;47.364;8.796;2023-07-09T01:04:25;18.90;90.30
17148;DHT22;8689;47.364;8.796;2023-07-09T01:06:56;18.80;90.00
17148;DHT22;8689;47.364;8.796;2023-07-09T01:09:25;18.80;90.30
17148;DHT22;8689;47.364;8.796;2023-07-09T01:11:56;18.70;90.40
17148;DHT22;8689;47.364;8.796;2023-07-09T01:14:29;18.80;90.50
17148;DHT22;8689;47.364;8.796;2023-07-09T01:17:03;18.70;90.50
17148;DHT22;8689;47.364;8.796;2023-07-09T01:19:40;18.60;91.00
17148;DHT22;8689;47.364;8.796;2023-07-09T01:22:14;18.60;91.20
17148;DHT22;8689;47.364;8.796;2023-07-09T01:24:52;18.60;91.10
17148;DHT22;8689;47.364;8.796;2023-07-09T01:27:23;18.60;91.20
17148;DHT22;8689;47.364;8.796;2023-07-09T01:29:52;18.50;91.10
17148;DHT22;8689;47.364;8.796;2023-07-09T01:32:21;18.50;91.50
17148;DHT22;8689;47.364;8.796;2023-07-09T01:34:52;18.50;91.70
17148;DHT22;8689;47.364;8.796;2023-07-09T01:37:25;18.50;91.60
17148;DHT22;8689;47.364;8.796;2023-07-09T01:39:53;18.50;91.60
17148;DHT22;8689;47.364;8.796;2023-07-09T01:42:23;18.50;91.90
17148;DHT22;8689;47.364;8.796;2023-07-09T01:44:52;18.40;91.80
17148;DHT22;8689;47.364;8.796;2023-07-09T01:47:20;18.40;92.10
17148;DHT22;8689;47.364;8.796;2023-07-09T01:49:49;18.40;92.10
17148;DHT22;8689;47.364;8.796;2023-07-09T01:52:26;18.40;92.30
17148;DHT22;8689;47.364;8.796;2023-07-09T01:54:54;18.40;92.40
17148;DHT22;8689;47.364;8.796;2023-07-09T01:57:23;18.40;92.50
17148;DHT22;8689;47.364;8.796;2023-07-09T01:59:52;18.50;92.50
17148;DHT22;8689;47.364;8.796;2023-07-09T02:02:21;18.40;92.40
17148;DHT22;8689;47.364;8.796;2023-07-09T02:04:50;18.40;92.40
17148;DHT22;8689;47.364;8.796;2023-07-09T02:07:18;18.40;92.50
17148;DHT22;8689;47.364;8.796;2023-07-09T02:09:48;18.40;92.80
17148;DHT22;8689;47.364;8.796;2023-07-09T02:12:16;18.30;92.80
17148;DHT22;8689;47.364;8.796;2023-07-09T02:14:45;18.20;93.70
17148;DHT22;8689;47.364;8.796;2023-07-09T02:17:14;18.10;94.40
17148;DHT22;8689;47.364;8.796;2023-07-09T02:19:43;18.00;95.40
17148;DHT22;8689;47.364;8.796;2023-07-09T02:22:11;17.90;95.80
17148;DHT22;8689;47.364;8.796;2023-07-09T02:24:40;17.80;96.60
17148;DHT22;8689;47.364;8.796;2023-07-09T02:27:14;17.60;97.80
17148;DHT22;8689;47.364;8.796;2023-07-09T02:29:42;17.50;99.90
17148;DHT22;8689;47.364;8.796;2023-07-09T02:32:09;17.40;99.90
17148;DHT22;8689;47.364;8.796;2023-07-09T02:34:40;17.30;99.90
17148;DHT22;8689;47.364;8.796;2023-07-09T02:37:09;17.30;99.90
17148;DHT22;8689;47.364;8.796;2023-07-09T02:39:36;17.30;99.90
17148;DHT22;8689;47.364;8.796;2023-07-09T02:42:04;17.40;99.90
17148;DHT22;8689;47.364;8.796;2023-07-09T02:44:34;17.40;99.90
17148;DHT22;8689;47.364;8.796;2023-07-09T02:47:03;17.40;99.90
17148;DHT22;8689;47.364;8.796;2023-07-09T02:49:30;17.30;99.90
17148;DHT22;8689;47.364;8.796;2023-07-09T02:51:58;17.20;99.90
17148;DHT22;8689;47.364;8.796;2023-07-09T02:54:26;17.10;99.90
17148;DHT22;8689;47.364;8.796;2023-07-09T02:56:53;17.10;99.90
17148;DHT22;8689;47.364;8.796;2023-07-09T02:59:20;17.10;99.90
17148;DHT22;8689;47.364;8.796;2023-07-09T03:01:51;17.00;99.90
17148;DHT22;8689;47.364;8.796;2023-07-09T03:04:19;16.90;99.90
17148;DHT22;8689;47.364;8.796;2023-07-09T03:06:47;17.00;99.90
17148;DHT22;8689;47.364;8.796;2023-07-09T03:09:15;17.00;99.90
17148;DHT22;8689;47.364;8.796;2023-07-09T03:11:45;17.00;99.90
17148;DHT22;8689;47.364;8.796;2023-07-09T03:14:16;17.00;99.90
17148;DHT22;8689;47.364;8.796;2023-07-09T03:16:44;17.00;99.90
17148;DHT22;8689;47.364;8.796;2023-07-09T03:19:23;17.10;99.90
17148;DHT22;8689;47.364;8.796;2023-07-09T03:21:52;17.20;99.90
17148;DHT22;8689;47.364;8.796;2023-07-09T03:28:06;17.40;99.90
17148;DHT22;8689;47.364;8.796;2023-07-09T03:30:42;17.50;99.90
17148;DHT22;8689;47.364;8.796;2023-07-09T03:45:29;17.60;99.90
17148;DHT22;8689;47.364;8.796;2023-07-09T03:48:13;17.60;99.90
17148;DHT22;8689;47.364;8.796;2023-07-09T03:51:27;17.50;99.90
17148;DHT22;8689;47.364;8.796;2023-07-09T03:53:57;17.40;99.90
17148;DHT22;8689;47.364;8.796;2023-07-09T03:56:45;17.30;99.90
17148;DHT22;8689;47.364;8.796;2023-07-09T03:59:27;17.30;99.90
17148;DHT22;8689;47.364;8.796;2023-07-09T04:01:54;17.30;99.90
17148;DHT22;8689;47.364;8.796;2023-07-09T04:04:22;17.20;99.90
17148;DHT22;8689;47.364;8.796;2023-07-09T04:06:49;17.10;99.90
17148;DHT22;8689;47.364;8.796;2023-07-09T04:09:19;17.00;99.90
17148;DHT22;8689;47.364;8.796;2023-07-09T04:11:52;16.90;99.90
17148;DHT22;8689;47.364;8.796;2023-07-09T04:14:21;16.90;99.90
17148;DHT22;8689;47.364;8.796;2023-07-09T04:16:49;16.90;99.90
17148;DHT22;8689;47.364;8.796;2023-07-09T04:19:21;17.10;99.90
17148;DHT22;8689;47.364;8.796;2023-07-09T04:21:54;17.20;99.90
17148;DHT22;8689;47.364;8.796;2023-07-09T04:27:13;17.30;99.90
17148;DHT22;8689;47.364;8.796;2023-07-09T04:29:56;17.30;99.90
17148;DHT22;8689;47.364;8.796;2023-07-09T04:32:24;17.40;99.90
17148;DHT22;8689;47.364;8.796;2023-07-09T04:34:52;17.40;99.90
17148;DHT22;8689;47.364;8.796;2023-07-09T04:37:20;17.40;99.90
17148;DHT22;8689;47.364;8.796;2023-07-09T04:39:51;17.50;99.90
17148;DHT22;8689;47.364;8.796;2023-07-09T04:42:21;17.50;99.90
17148;DHT22;8689;47.364;8.796;2023-07-09T04:44:50;17.50;99.90
17148;DHT22;8689;47.364;8.796;2023-07-09T04:47:20;17.60;99.90
17148;DHT22;8689;47.364;8.796;2023-07-09T04:49:47;17.70;99.90
17148;DHT22;8689;47.364;8.796;2023-07-09T04:52:15;17.80;99.90
17148;DHT22;8689;47.364;8.796;2023-07-09T04:54:43;17.80;99.90
17148;DHT22;8689;47.364;8.796;2023-07-09T04:57:12;17.80;99.90
17148;DHT22;8689;47.364;8.796;2023-07-09T04:59:40;17.80;99.90
17148;DHT22;8689;47.364;8.796;2023-07-09T05:02:08;17.80;99.90
17148;DHT22;8689;47.364;8.796;2023-07-09T05:04:35;17.70;99.90
17148;DHT22;8689;47.364;8.796;2023-07-09T05:07:03;17.70;99.90
17148;DHT22;8689;47.364;8.796;2023-07-09T05:09:31;17.70;99.90
17148;DHT22;8689;47.364;8.796;2023-07-09T05:12:00;17.70;99.90
17148;DHT22;8689;47.364;8.796;2023-07-09T05:14:39;17.70;99.90
17148;DHT22;8689;47.364;8.796;2023-07-09T05:17:07;17.70;99.90
17148;DHT22;8689;47.364;8.796;2023-07-09T05:19:36;17.70;99.90
17148;DHT22;8689;47.364;8.796;2023-07-09T05:22:03;17.70;99.90
17148;DHT22;8689;47.364;8.796;2023-07-09T05:24:31;17.80;99.90
17148;DHT22;8689;47.364;8.796;2023-07-09T05:26:59;17.80;99.90
17148;DHT22;8689;47.364;8.796;2023-07-09T05:29:27;17.90;99.90
17148;DHT22;8689;47.364;8.796;2023-07-09T05:31:55;18.00;99.90
17148;DHT22;8689;47.364;8.796;2023-07-09T05:34:24;18.10;99.90
17148;DHT22;8689;47.364;8.796;2023-07-09T05:36:51;18.30;99.90
17148;DHT22;8689;47.364;8.796;2023-07-09T05:39:18;18.50;99.90
17148;DHT22;8689;47.364;8.796;2023-07-09T05:41:46;18.80;99.90
17148;DHT22;8689;47.364;8.796;2023-07-09T05:44:13;18.90;99.90
17148;DHT22;8689;47.364;8.796;2023-07-09T05:46:43;19.00;99.90
17148;DHT22;8689;47.364;8.796;2023-07-09T05:49:14;19.10;99.90
17148;DHT22;8689;47.364;8.796;2023-07-09T05:51:41;19.30;99.90
17148;DHT22;8689;47.364;8.796;2023-07-09T05:54:08;19.80;99.90
17148;DHT22;8689;47.364;8.796;2023-07-09T05:56:36;20.60;99.90
17148;DHT22;8689;47.364;8.796;2023-07-09T05:59:04;21.50;99.90
17148;DHT22;8689;47.364;8.796;2023-07-09T06:01:31;22.40;99.90
17148;DHT22;8689;47.364;8.796;2023-07-09T06:04:06;23.10;99.90
17148;DHT22;8689;47.364;8.796;2023-07-09T06:06:36;23.80;95.10
17148;DHT22;8689;47.364;8.796;2023-07-09T06:09:04;24.30;91.50
17148;DHT22;8689;47.364;8.796;2023-07-09T06:11:33;24.70;88.30
17148;DHT22;8689;47.364;8.796;2023-07-09T06:14:00;25.00;88.40
17148;DHT22;8689;47.364;8.796;2023-07-09T06:16:28;25.40;87.00
17148;DHT22;8689;47.364;8.796;2023-07-09T06:18:57;25.70;85.20
17148;DHT22;8689;47.364;8.796;2023-07-09T06:21:24;26.00;83.80
17148;DHT22;8689;47.364;8.796;2023-07-09T06:23:52;26.20;79.30
17148;DHT22;8689;47.364;8.796;2023-07-09T06:26:19;26.40;78.90
17148;DHT22;8689;47.364;8.796;2023-07-09T06:28:47;26.60;76.20
17148;DHT22;8689;47.364;8.796;2023-07-09T06:31:14;26.80;77.00
17148;DHT22;8689;47.364;8.796;2023-07-09T06:33:42;26.90;75.20
17148;DHT22;8689;47.364;8.796;2023-07-09T06:36:10;27.10;72.20
17148;DHT22;8689;47.364;8.796;2023-07-09T06:38:37;27.20;68.90
17148;DHT22;8689;47.364;8.796;2023-07-09T06:41:06;27.40;68.90
17148;DHT22;8689;47.364;8.796;2023-07-09T06:43:34;27.50;67.50
17148;DHT22;8689;47.364;8.796;2023-07-09T06:46:05;27.60;67.40
17148;DHT22;8689;47.364;8.796;2023-07-09T06:48:32;27.80;66.40
17148;DHT22;8689;47.364;8.796;2023-07-09T06:51:00;27.90;65.60
17148;DHT22;8689;47.364;8.796;2023-07-09T06:53:28;27.80;66.50
17148;DHT22;8689;47.364;8.796;2023-07-09T06:55:56;27.70;67.70
17148;DHT22;8689;47.364;8.796;2023-07-09T06:58:27;27.80;66.00
17148;DHT22;8689;47.364;8.796;2023-07-09T07:00:55;27.70;67.30
17148;DHT22;8689;47.364;8.796;2023-07-09T07:03:22;27.70;65.10
17148;DHT22;8689;47.364;8.796;2023-07-09T07:05:52;27.70;64.20
17148;DHT22;8689;47.364;8.796;2023-07-09T07:08:22;27.80;64.00
17148;DHT22;8689;47.364;8.796;2023-07-09T07:10:51;27.80;62.70
17148;DHT22;8689;47.364;8.796;2023-07-09T07:13:25;27.80;60.50
17148;DHT22;8689;47.364;8.796;2023-07-09T07:15:53;28.00;61.40
17148;DHT22;8689;47.364;8.796;2023-07-09T07:18:20;28.10;62.50
17148;DHT22;8689;47.364;8.796;2023-07-09T07:20:49;28.50;63.90
17148;DHT22;8689;47.364;8.796;2023-07-09T07:23:17;28.90;61.20
17148;DHT22;8689;47.364;8.796;2023-07-09T07:25:44;29.10;58.90
17148;DHT22;8689;47.364;8.796;2023-07-09T07:28:12;29.30;58.60
17148;DHT22;8689;47.364;8.796;2023-07-09T07:30:41;29.40;57.70
17148;DHT22;8689;47.364;8.796;2023-07-09T07:33:08;29.50;57.60
17148;DHT22;8689;47.364;8.796;2023-07-09T07:35:35;29.60;57.50
17148;DHT22;8689;47.364;8.796;2023-07-09T07:38:03;29.70;55.80
17148;DHT22;8689;47.364;8.796;2023-07-09T07:40:30;29.90;57.10
17148;DHT22;8689;47.364;8.796;2023-07-09T07:42:57;30.00;56.60
17148;DHT22;8689;47.364;8.796;2023-07-09T07:45:25;30.10;55.40
17148;DHT22;8689;47.364;8.796;2023-07-09T07:47:54;30.30;56.40
17148;DHT22;8689;47.364;8.796;2023-07-09T07:50:21;30.50;55.80
17148;DHT22;8689;47.364;8.796;2023-07-09T07:52:48;30.70;54.70
17148;DHT22;8689;47.364;8.796;2023-07-09T07:55:15;30.90;55.60
17148;DHT22;8689;47.364;8.796;2023-07-09T07:57:44;31.10;54.20
17148;DHT22;8689;47.364;8.796;2023-07-09T08:00:12;31.30;53.70
17148;DHT22;8689;47.364;8.796;2023-07-09T08:02:40;31.40;53.20
17148;DHT22;8689;47.364;8.796;2023-07-09T08:05:09;31.30;53.70
17148;DHT22;8689;47.364;8.796;2023-07-09T08:07:37;31.30;53.60
17148;DHT22;8689;47.364;8.796;2023-07-09T08:10:06;31.40;53.20
17148;DHT22;8689;47.364;8.796;2023-07-09T08:12:33;31.60;54.00
17148;DHT22;8689;47.364;8.796;2023-07-09T08:15:01;31.90;53.80
17148;DHT22;8689;47.364;8.796;2023-07-09T08:17:28;32.10;52.80
17148;DHT22;8689;47.364;8.796;2023-07-09T08:19:55;32.30;51.80
17148;DHT22;8689;47.364;8.796;2023-07-09T08:22:24;32.30;52.10
17148;DHT22;8689;47.364;8.796;2023-07-09T08:24:51;32.40;51.30
17148;DHT22;8689;47.364;8.796;2023-07-09T08:27:19;32.40;51.40
17148;DHT22;8689;47.364;8.796;2023-07-09T08:29:47;32.50;50.50
17148;DHT22;8689;47.364;8.796;2023-07-09T08:32:14;32.50;50.50
17148;DHT22;8689;47.364;8.796;2023-07-09T08:34:42;32.50;50.50
17148;DHT22;8689;47.364;8.796;2023-07-09T08:37:10;32.80;50.70
17148;DHT22;8689;47.364;8.796;2023-07-09T08:39:42;32.90;49.80
17148;DHT22;8689;47.364;8.796;2023-07-09T08:42:10;33.00;49.20
17148;DHT22;8689;47.364;8.796;2023-07-09T08:45:03;33.10;49.30
17148;DHT22;8689;47.364;8.796;2023-07-09T08:47:40;33.10;49.20
17148;DHT22;8689;47.364;8.796;2023-07-09T08:50:12;33.20;51.00
17148;DHT22;8689;47.364;8.796;2023-07-09T08:52:41;33.40;49.70
17148;DHT22;8689;47.364;8.796;2023-07-09T08:55:14;33.40;50.90
17148;DHT22;8689;47.364;8.796;2023-07-09T08:57:44;33.40;50.50
17148;DHT22;8689;47.364;8.796;2023-07-09T09:00:16;33.40;50.80
17148;DHT22;8689;47.364;8.796;2023-07-09T09:02:48;33.50;51.50
17148;DHT22;8689;47.364;8.796;2023-07-09T09:05:18;33.70;51.30
17148;DHT22;8689;47.364;8.796;2023-07-09T09:07:51;33.90;51.40
17148;DHT22;8689;47.364;8.796;2023-07-09T09:10:29;34.00;50.60
17148;DHT22;8689;47.364;8.796;2023-07-09T09:13:05;33.90;50.80
17148;DHT22;8689;47.364;8.796;2023-07-09T09:15:36;33.80;51.30
17148;DHT22;8689;47.364;8.796;2023-07-09T09:18:20;33.90;51.40
17148;DHT22;8689;47.364;8.796;2023-07-09T09:21:00;34.00;51.10
17148;DHT22;8689;47.364;8.796;2023-07-09T09:23:36;34.10;51.10
17148;DHT22;8689;47.364;8.796;2023-07-09T09:26:13;34.20;51.60
17148;DHT22;8689;47.364;8.796;2023-07-09T09:28:42;34.20;49.80
17148;DHT22;8689;47.364;8.796;2023-07-09T09:31:11;34.40;50.00
17148;DHT22;8689;47.364;8.796;2023-07-09T09:33:41;34.60;50.40
17148;DHT22;8689;47.364;8.796;2023-07-09T09:36:15;34.50;50.30
17148;DHT22;8689;47.364;8.796;2023-07-09T09:38:43;34.50;51.10
17148;DHT22;8689;47.364;8.796;2023-07-09T09:41:23;34.50;49.90
17148;DHT22;8689;47.364;8.796;2023-07-09T09:43:53;34.40;50.20
17148;DHT22;8689;47.364;8.796;2023-07-09T09:46:24;34.60;50.20
17148;DHT22;8689;47.364;8.796;2023-07-09T09:48:54;34.80;49.20
17148;DHT22;8689;47.364;8.796;2023-07-09T09:51:23;34.80;49.30
17148;DHT22;8689;47.364;8.796;2023-07-09T09:53:52;35.00;48.70
17148;DHT22;8689;47.364;8.796;2023-07-09T09:56:27;35.10;48.70
17148;DHT22;8689;47.364;8.796;2023-07-09T09:58:56;35.20;47.90
17148;DHT22;8689;47.364;8.796;2023-07-09T10:01:27;35.20;47.50
17148;DHT22;8689;47.364;8.796;2023-07-09T10:03:56;35.10;47.70
17148;DHT22;8689;47.364;8.796;2023-07-09T10:06:33;35.10;48.70
17148;DHT22;8689;47.364;8.796;2023-07-09T10:09:05;35.30;47.80
17148;DHT22;8689;47.364;8.796;2023-07-09T10:11:45;35.40;45.90
17148;DHT22;8689;47.364;8.796;2023-07-09T10:14:25;35.40;46.10
17148;DHT22;8689;47.364;8.796;2023-07-09T10:16:58;35.30;47.70
17148;DHT22;8689;47.364;8.796;2023-07-09T10:19:35;35.30;45.20
17148;DHT22;8689;47.364;8.796;2023-07-09T10:22:10;35.40;45.40
17148;DHT22;8689;47.364;8.796;2023-07-09T10:24:50;35.40;44.60
17148;DHT22;8689;47.364;8.796;2023-07-09T10:27:26;35.30;44.00
17148;DHT22;8689;47.364;8.796;2023-07-09T10:30:08;35.30;44.00
17148;DHT22;8689;47.364;8.796;2023-07-09T10:32:49;35.30;45.20
17148;DHT22;8689;47.364;8.796;2023-07-09T10:35:24;35.50;43.30
17148;DHT22;8689;47.364;8.796;2023-07-09T10:40:49;35.80;40.00
17148;DHT22;8689;47.364;8.796;2023-07-09T10:43:36;35.70;39.10
17148;DHT22;8689;47.364;8.796;2023-07-09T10:46:09;35.80;38.70
17148;DHT22;8689;47.364;8.796;2023-07-09T10:48:40;36.00;38.00
17148;DHT22;8689;47.364;8.796;2023-07-09T10:51:19;36.30;37.50
17148;DHT22;8689;47.364;8.796;2023-07-09T10:53:51;36.40;37.50
17148;DHT22;8689;47.364;8.796;2023-07-09T10:56:22;36.30;36.10
17148;DHT22;8689;47.364;8.796;2023-07-09T10:58:57;36.40;41.60
17148;DHT22;8689;47.364;8.796;2023-07-09T11:01:32;36.60;42.40
17148;DHT22;8689;47.364;8.796;2023-07-09T11:04:03;36.80;41.10
17148;DHT22;8689;47.364;8.796;2023-07-09T11:06:35;36.80;41.30
17148;DHT22;8689;47.364;8.796;2023-07-09T11:09:07;36.90;40.70
17148;DHT22;8689;47.364;8.796;2023-07-09T11:11:42;36.80;39.90
17148;DHT22;8689;47.364;8.796;2023-07-09T11:14:19;36.70;40.20
17148;DHT22;8689;47.364;8.796;2023-07-09T11:16:49;36.60;41.40
17148;DHT22;8689;47.364;8.796;2023-07-09T11:19:18;36.70;39.90
17148;DHT22;8689;47.364;8.796;2023-07-09T11:21:58;36.70;39.40
17148;DHT22;8689;47.364;8.796;2023-07-09T11:24:32;36.60;40.40
17148;DHT22;8689;47.364;8.796;2023-07-09T11:26:59;37.00;39.70
17148;DHT22;8689;47.364;8.796;2023-07-09T11:29:29;37.40;38.00
17148;DHT22;8689;47.364;8.796;2023-07-09T11:32:08;37.70;38.00
17148;DHT22;8689;47.364;8.796;2023-07-09T11:34:45;37.90;36.30
17148;DHT22;8689;47.364;8.796;2023-07-09T11:37:14;37.80;36.60
17148;DHT22;8689;47.364;8.796;2023-07-09T11:39:43;37.70;35.70
17148;DHT22;8689;47.364;8.796;2023-07-09T11:42:31;37.70;35.90
17148;DHT22;8689;47.364;8.796;2023-07-09T11:45:06;37.80;34.30
17148;DHT22;8689;47.364;8.796;2023-07-09T11:47:39;37.80;32.60
17148;DHT22;8689;47.364;8.796;2023-07-09T11:50:20;37.70;33.70
17148;DHT22;8689;47.364;8.796;2023-07-09T11:52:51;37.60;30.00
17148;DHT22;8689;47.364;8.796;2023-07-09T11:55:27;37.40;30.20
17148;DHT22;8689;47.364;8.796;2023-07-09T11:57:55;37.50;31.50
17148;DHT22;8689;47.364;8.796;2023-07-09T12:00:26;37.60;30.60
17148;DHT22;8689;47.364;8.796;2023-07-09T12:02:55;37.60;31.40
17148;DHT22;8689;47.364;8.796;2023-07-09T12:05:27;37.70;28.60
17148;DHT22;8689;47.364;8.796;2023-07-09T12:07:56;37.80;30.40
17148;DHT22;8689;47.364;8.796;2023-07-09T12:10:26;38.00;29.80
17148;DHT22;8689;47.364;8.796;2023-07-09T12:12:55;38.60;29.30
17148;DHT22;8689;47.364;8.796;2023-07-09T12:15:25;39.00;29.60
17148;DHT22;8689;47.364;8.796;2023-07-09T12:17:59;39.00;29.10
17148;DHT22;8689;47.364;8.796;2023-07-09T12:20:30;39.00;29.80
17148;DHT22;8689;47.364;8.796;2023-07-09T12:22:58;38.90;30.60
17148;DHT22;8689;47.364;8.796;2023-07-09T12:25:27;38.90;31.90
17148;DHT22;8689;47.364;8.796;2023-07-09T12:27:57;38.90;32.60
17148;DHT22;8689;47.364;8.796;2023-07-09T12:30:32;39.10;32.00
17148;DHT22;8689;47.364;8.796;2023-07-09T12:33:01;39.20;31.20
17148;DHT22;8689;47.364;8.796;2023-07-09T12:35:33;39.20;32.80
17148;DHT22;8689;47.364;8.796;2023-07-09T12:38:01;39.20;32.10
17148;DHT22;8689;47.364;8.796;2023-07-09T12:40:29;39.20;30.00
17148;DHT22;8689;47.364;8.796;2023-07-09T12:42:58;39.40;29.50
17148;DHT22;8689;47.364;8.796;2023-07-09T12:45:29;39.50;30.00
17148;DHT22;8689;47.364;8.796;2023-07-09T12:47:56;39.60;29.70
17148;DHT22;8689;47.364;8.796;2023-07-09T12:50:30;39.50;29.70
17148;DHT22;8689;47.364;8.796;2023-07-09T12:53:02;39.60;29.90
17148;DHT22;8689;47.364;8.796;2023-07-09T12:55:36;39.50;30.80
17148;DHT22;8689;47.364;8.796;2023-07-09T12:58:09;39.40;30.00
17148;DHT22;8689;47.364;8.796;2023-07-09T13:00:39;39.60;28.40
17148;DHT22;8689;47.364;8.796;2023-07-09T13:03:13;39.80;28.70
17148;DHT22;8689;47.364;8.796;2023-07-09T13:05:52;40.20;28.50
17148;DHT22;8689;47.364;8.796;2023-07-09T13:08:20;40.50;27.70
17148;DHT22;8689;47.364;8.796;2023-07-09T13:10:48;40.40;28.40
17148;DHT22;8689;47.364;8.796;2023-07-09T13:13:19;40.60;28.20
17148;DHT22;8689;47.364;8.796;2023-07-09T13:15:51;40.40;28.40
17148;DHT22;8689;47.364;8.796;2023-07-09T13:18:22;40.20;29.80
17148;DHT22;8689;47.364;8.796;2023-07-09T13:20:51;40.10;29.10
17148;DHT22;8689;47.364;8.796;2023-07-09T13:23:22;40.20;29.20
17148;DHT22;8689;47.364;8.796;2023-07-09T13:28:58;40.10;30.20
17148;DHT22;8689;47.364;8.796;2023-07-09T13:31:28;40.30;31.40
17148;DHT22;8689;47.364;8.796;2023-07-09T13:33:58;40.60;29.20
17148;DHT22;8689;47.364;8.796;2023-07-09T13:36:28;40.40;29.90
17148;DHT22;8689;47.364;8.796;2023-07-09T13:38:55;40.60;27.60
17148;DHT22;8689;47.364;8.796;2023-07-09T13:41:22;41.20;28.00
17148;DHT22;8689;47.364;8.796;2023-07-09T13:43:49;41.50;25.20
17148;DHT22;8689;47.364;8.796;2023-07-09T13:46:17;41.80;26.80
17148;DHT22;8689;47.364;8.796;2023-07-09T13:48:46;42.10;25.50
17148;DHT22;8689;47.364;8.796;2023-07-09T13:51:18;42.40;27.00
17148;DHT22;8689;47.364;8.796;2023-07-09T13:53:55;42.50;27.40
17148;DHT22;8689;47.364;8.796;2023-07-09T13:56:23;42.70;25.80
17148;DHT22;8689;47.364;8.796;2023-07-09T13:58:50;42.60;27.30
17148;DHT22;8689;47.364;8.796;2023-07-09T14:01:22;42.70;26.10
17148;DHT22;8689;47.364;8.796;2023-07-09T14:03:54;42.90;28.10
17148;DHT22;8689;47.364;8.796;2023-07-09T14:06:25;43.10;26.80
17148;DHT22;8689;47.364;8.796;2023-07-09T14:08:52;43.30;26.60
17148;DHT22;8689;47.364;8.796;2023-07-09T14:11:20;43.30;24.80
17148;DHT22;8689;47.364;8.796;2023-07-09T14:13:47;43.40;22.30
17148;DHT22;8689;47.364;8.796;2023-07-09T14:16:15;43.20;24.00
17148;DHT22;8689;47.364;8.796;2023-07-09T14:18:42;43.20;24.00
17148;DHT22;8689;47.364;8.796;2023-07-09T14:21:13;43.10;22.50
17148;DHT22;8689;47.364;8.796;2023-07-09T14:23:41;43.00;25.00
17148;DHT22;8689;47.364;8.796;2023-07-09T14:26:09;42.70;25.60
17148;DHT22;8689;47.364;8.796;2023-07-09T14:28:37;42.40;25.10
17148;DHT22;8689;47.364;8.796;2023-07-09T14:31:19;42.40;24.10
17148;DHT22;8689;47.364;8.796;2023-07-09T14:33:47;42.30;24.80
17148;DHT22;8689;47.364;8.796;2023-07-09T14:36:16;42.30;25.60
17148;DHT22;8689;47.364;8.796;2023-07-09T14:38:43;42.50;23.50
17148;DHT22;8689;47.364;8.796;2023-07-09T14:41:33;42.80;23.80
17148;DHT22;8689;47.364;8.796;2023-07-09T14:44:01;43.30;24.60
17148;DHT22;8689;47.364;8.796;2023-07-09T14:46:29;43.60;23.30
17148;DHT22;8689;47.364;8.796;2023-07-09T14:49:10;43.90;24.20
17148;DHT22;8689;47.364;8.796;2023-07-09T14:51:41;43.90;22.90
17148;DHT22;8689;47.364;8.796;2023-07-09T14:54:25;44.10;22.70
17148;DHT22;8689;47.364;8.796;2023-07-09T14:57:17;43.70;22.40
17148;DHT22;8689;47.364;8.796;2023-07-09T14:59:45;42.80;22.10
17148;DHT22;8689;47.364;8.796;2023-07-09T15:02:28;42.70;22.50
17148;DHT22;8689;47.364;8.796;2023-07-09T15:04:57;41.90;22.60
17148;DHT22;8689;47.364;8.796;2023-07-09T15:07:25;41.00;23.80
17148;DHT22;8689;47.364;8.796;2023-07-09T15:09:56;40.30;25.00
17148;DHT22;8689;47.364;8.796;2023-07-09T15:12:27;39.90;23.60
17148;DHT22;8689;47.364;8.796;2023-07-09T15:15:00;40.00;23.80
17148;DHT22;8689;47.364;8.796;2023-07-09T15:17:30;39.80;23.20
17148;DHT22;8689;47.364;8.796;2023-07-09T15:19:57;40.30;23.40
17148;DHT22;8689;47.364;8.796;2023-07-09T15:22:30;41.00;23.20
17148;DHT22;8689;47.364;8.796;2023-07-09T15:24:59;41.90;23.00
17148;DHT22;8689;47.364;8.796;2023-07-09T15:27:27;42.60;22.20
17148;DHT22;8689;47.364;8.796;2023-07-09T15:30:14;43.10;22.90
17148;DHT22;8689;47.364;8.796;2023-07-09T15:33:01;43.00;22.60
17148;DHT22;8689;47.364;8.796;2023-07-09T15:35:32;42.40;22.60
17148;DHT22;8689;47.364;8.796;2023-07-09T15:38:25;41.90;24.00
17148;DHT22;8689;47.364;8.796;2023-07-09T15:40:53;41.60;23.70
17148;DHT22;8689;47.364;8.796;2023-07-09T15:43:20;41.00;23.20
17148;DHT22;8689;47.364;8.796;2023-07-09T15:45:49;40.50;23.20
17148;DHT22;8689;47.364;8.796;2023-07-09T15:48:21;40.30;24.40
17148;DHT22;8689;47.364;8.796;2023-07-09T15:50:49;40.40;23.30
17148;DHT22;8689;47.364;8.796;2023-07-09T15:53:19;40.00;23.20
17148;DHT22;8689;47.364;8.796;2023-07-09T15:55:47;39.60;24.10
17148;DHT22;8689;47.364;8.796;2023-07-09T15:58:26;39.50;24.20
17148;DHT22;8689;47.364;8.796;2023-07-09T16:00:54;39.20;24.20
17148;DHT22;8689;47.364;8.796;2023-07-09T16:03:22;38.50;25.40
17148;DHT22;8689;47.364;8.796;2023-07-09T16:05:49;37.70;26.30
17148;DHT22;8689;47.364;8.796;2023-07-09T16:08:17;37.10;27.50
17148;DHT22;8689;47.364;8.796;2023-07-09T16:10:44;36.70;26.70
17148;DHT22;8689;47.364;8.796;2023-07-09T16:13:18;36.20;27.20
17148;DHT22;8689;47.364;8.796;2023-07-09T16:15:47;35.90;28.40
17148;DHT22;8689;47.364;8.796;2023-07-09T16:18:16;35.70;27.90
17148;DHT22;8689;47.364;8.796;2023-07-09T16:20:43;35.50;29.00
17148;DHT22;8689;47.364;8.796;2023-07-09T16:23:15;35.40;30.10
17148;DHT22;8689;47.364;8.796;2023-07-09T16:25:46;35.20;29.20
17148;DHT22;8689;47.364;8.796;2023-07-09T16:28:16;35.20;31.50
17148;DHT22;8689;47.364;8.796;2023-07-09T16:30:44;35.10;30.70
17148;DHT22;8689;47.364;8.796;2023-07-09T16:33:13;34.90;28.40
17148;DHT22;8689;47.364;8.796;2023-07-09T16:35:40;34.70;30.70
17148;DHT22;8689;47.364;8.796;2023-07-09T16:38:10;34.60;31.00
17148;DHT22;8689;47.364;8.796;2023-07-09T16:40:38;34.50;32.30